createdAt,value
2022-12-28T00:02:15.708Z,5.20
2022-12-28T00:04:43.833Z,5.67
2022-12-28T00:07:11.988Z,5.07
2022-12-28T00:09:41.541Z,4.60
2022-12-28T00:12:10.074Z,5.07
2022-12-28T00:14:38.350Z,4.83
2022-12-28T00:17:06.532Z,4.90
2022-12-28T00:19:34.789Z,4.47
2022-12-28T00:22:02.921Z,4.60
2022-12-28T00:24:31.049Z,4.70
2022-12-28T00:27:00.714Z,4.47
2022-12-28T00:29:28.987Z,4.30
2022-12-28T00:31:57.390Z,4.37
2022-12-28T00:34:25.727Z,4.47
2022-12-28T00:37:08.747Z,4.90
2022-12-28T00:39:39.667Z,4.47
2022-12-28T00:42:09.858Z,4.40
2022-12-28T00:44:38.645Z,4.97
2022-12-28T00:47:07.111Z,4.17
2022-12-28T00:49:35.500Z,4.47
2022-12-28T00:52:03.725Z,4.43
2022-12-28T00:54:31.929Z,4.23
2022-12-28T00:57:00.129Z,4.30
2022-12-28T00:59:29.663Z,3.83
2022-12-28T01:01:57.968Z,4.27
2022-12-28T01:04:26.285Z,4.90
2022-12-28T01:06:54.516Z,4.43
2022-12-28T01:09:23.070Z,4.03
2022-12-28T01:11:51.332Z,4.80
2022-12-28T01:14:19.525Z,5.20
2022-12-28T01:16:49.538Z,5.87
2022-12-28T01:19:21.284Z,6.60
2022-12-28T01:21:50.405Z,6.80
2022-12-28T01:24:19.248Z,7.73
2022-12-28T01:26:47.410Z,9.00
2022-12-28T01:29:15.617Z,9.83
2022-12-28T01:31:43.913Z,9.30
2022-12-28T01:34:15.383Z,8.73
2022-12-28T01:36:47.431Z,7.57
2022-12-28T01:39:15.586Z,7.20
2022-12-28T01:41:44.211Z,7.40
2022-12-28T01:44:44.003Z,7.40
2022-12-28T01:47:16.780Z,7.33
2022-12-28T01:49:52.645Z,6.83
2022-12-28T01:52:25.604Z,6.70
2022-12-28T01:54:57.814Z,6.27
2022-12-28T01:57:30.786Z,7.00
2022-12-28T02:00:04.102Z,6.93
2022-12-28T02:02:42.478Z,6.73
2022-12-28T02:05:12.976Z,6.37
2022-12-28T02:07:46.785Z,6.83
2022-12-28T02:10:43.732Z,6.67
2022-12-28T02:13:06.366Z,6.17
2022-12-28T02:15:34.675Z,6.70
2022-12-28T02:18:03.796Z,7.03
2022-12-28T02:20:42.882Z,6.30
2022-12-28T02:23:41.615Z,6.93
2022-12-28T02:26:39.867Z,6.00
2022-12-28T02:29:36.854Z,6.33
2022-12-28T02:32:15.880Z,6.37
2022-12-28T02:34:49.855Z,5.97
2022-12-28T02:37:22.536Z,6.10
2022-12-28T02:39:56.382Z,5.10
2022-12-28T02:42:27.562Z,5.33
2022-12-28T02:45:14.619Z,4.53
2022-12-28T02:48:03.009Z,5.80
2022-12-28T02:50:41.607Z,4.83
2022-12-28T02:53:34.579Z,5.07
2022-12-28T02:56:15.756Z,5.07
2022-12-28T02:59:20.375Z,5.60
2022-12-28T03:02:20.272Z,4.70
2022-12-28T03:05:09.041Z,5.10
2022-12-28T03:08:04.127Z,4.90
2022-12-28T03:10:38.366Z,5.33
2022-12-28T03:13:32.303Z,4.90
2022-12-28T03:16:08.047Z,4.67
2022-12-28T03:18:56.656Z,5.20
2022-12-28T03:21:46.566Z,4.70
2022-12-28T03:24:35.839Z,4.57
2022-12-28T03:27:28.125Z,4.90
2022-12-28T03:30:20.399Z,4.90
2022-12-28T03:32:50.341Z,4.80
2022-12-28T03:35:22.246Z,5.33
2022-12-28T03:37:57.820Z,4.90
2022-12-28T03:40:32.685Z,4.60
2022-12-28T03:43:25.234Z,5.70
2022-12-28T03:45:58.925Z,5.70
2022-12-28T03:48:27.963Z,4.77
2022-12-28T03:50:58.235Z,5.77
2022-12-28T03:53:33.545Z,5.43
2022-12-28T03:56:12.951Z,5.00
2022-12-28T03:58:42.601Z,5.67
2022-12-28T04:01:11.273Z,5.43
2022-12-28T04:03:41.622Z,4.57
2022-12-28T04:06:16.115Z,5.00
2022-12-28T04:08:45.161Z,5.67
2022-12-28T04:11:14.068Z,5.70
2022-12-28T04:13:44.702Z,5.83
2022-12-28T04:16:15.844Z,5.50
2022-12-28T04:18:44.942Z,5.40
2022-12-28T04:21:16.641Z,5.93
2022-12-28T04:23:46.470Z,5.10
2022-12-28T04:26:33.966Z,5.10
2022-12-28T04:29:02.653Z,5.47
2022-12-28T04:31:46.338Z,5.80
2022-12-28T04:34:18.458Z,5.70
2022-12-28T04:36:55.496Z,6.03
2022-12-28T04:39:24.371Z,5.20
2022-12-28T04:41:52.826Z,5.47
2022-12-28T04:44:21.030Z,5.37
2022-12-28T04:46:49.203Z,4.90
2022-12-28T04:49:17.494Z,5.23
2022-12-28T04:51:45.731Z,5.30
2022-12-28T04:54:16.299Z,5.40
2022-12-28T04:56:44.598Z,5.73
2022-12-28T04:59:12.936Z,6.50
2022-12-28T05:01:41.528Z,5.87
2022-12-28T05:04:10.282Z,5.57
2022-12-28T05:06:38.467Z,5.43
2022-12-28T05:09:06.690Z,5.83
2022-12-28T05:11:36.224Z,6.17
2022-12-28T05:14:04.559Z,5.93
2022-12-28T05:16:32.728Z,5.50
2022-12-28T05:19:00.925Z,6.43
2022-12-28T05:21:29.966Z,6.03
2022-12-28T05:23:58.942Z,6.27
2022-12-28T05:26:30.045Z,5.87
2022-12-28T05:28:59.967Z,5.83
2022-12-28T05:31:28.333Z,6.10
2022-12-28T05:33:57.019Z,5.97
2022-12-28T05:36:27.315Z,5.30
2022-12-28T05:38:56.830Z,5.63
2022-12-28T05:41:26.965Z,5.77
2022-12-28T05:43:55.980Z,5.60
2022-12-28T05:46:28.483Z,5.97
2022-12-28T05:48:56.871Z,5.77
2022-12-28T05:51:27.233Z,5.20
2022-12-28T05:53:55.439Z,5.40
2022-12-28T05:56:25.463Z,5.77
2022-12-28T05:58:55.523Z,5.10
2022-12-28T06:01:26.401Z,5.73
2022-12-28T06:03:56.077Z,5.57
2022-12-28T06:06:24.806Z,6.30
2022-12-28T06:08:53.219Z,6.50
2022-12-28T06:11:23.121Z,5.27
2022-12-28T06:13:52.080Z,5.30
2022-12-28T06:16:21.956Z,6.23
2022-12-28T06:18:52.565Z,5.43
2022-12-28T06:21:23.189Z,5.47
2022-12-28T06:23:52.222Z,5.40
2022-12-28T06:26:22.564Z,5.53
2022-12-28T06:28:51.742Z,5.83
2022-12-28T06:31:21.195Z,5.70
2022-12-28T06:33:53.849Z,5.97
2022-12-28T06:36:24.646Z,5.87
2022-12-28T06:38:54.535Z,5.77
2022-12-28T06:41:23.496Z,5.33
2022-12-28T06:43:52.402Z,6.50
2022-12-28T06:46:22.351Z,5.50
2022-12-28T06:48:52.294Z,5.63
2022-12-28T06:51:22.452Z,6.30
2022-12-28T06:53:52.191Z,6.30
2022-12-28T06:56:22.239Z,6.23
2022-12-28T06:58:54.480Z,6.50
2022-12-28T07:01:28.598Z,6.43
2022-12-28T07:03:59.552Z,5.53
2022-12-28T07:06:29.796Z,6.80
2022-12-28T07:09:02.377Z,6.53
2022-12-28T07:11:31.035Z,5.70
2022-12-28T07:13:59.306Z,6.43
2022-12-28T07:19:00.507Z,6.40
2022-12-28T07:21:32.392Z,6.03
2022-12-28T07:24:00.742Z,5.60
2022-12-28T07:26:31.041Z,6.00
2022-12-28T07:29:01.558Z,6.97
2022-12-28T07:31:31.684Z,5.80
2022-12-28T07:34:02.082Z,5.67
2022-12-28T07:36:32.833Z,6.43
2022-12-28T07:39:02.359Z,5.90
2022-12-28T07:41:36.382Z,5.90
2022-12-28T07:44:09.175Z,5.97
2022-12-28T07:46:39.969Z,5.30
2022-12-28T07:49:10.145Z,5.20
2022-12-28T07:51:40.298Z,5.33
2022-12-28T07:54:09.354Z,5.53
2022-12-28T07:59:06.361Z,5.27
2022-12-28T08:01:36.533Z,7.43
2022-12-28T08:04:07.550Z,8.20
2022-12-28T08:06:39.773Z,8.33
2022-12-28T08:09:09.942Z,6.70
2022-12-28T08:11:40.373Z,6.97
2022-12-28T08:14:09.469Z,6.50
2022-12-28T08:16:39.952Z,7.03
2022-12-28T08:19:12.242Z,7.07
2022-12-28T08:21:48.194Z,7.13
2022-12-28T08:24:21.762Z,7.60
2022-12-28T08:26:50.847Z,7.43
2022-12-28T08:29:21.302Z,6.03
2022-12-28T08:31:50.076Z,6.70
2022-12-28T08:34:20.828Z,6.37
2022-12-28T08:36:50.486Z,7.80
2022-12-28T08:39:18.674Z,7.57
2022-12-28T08:41:47.056Z,8.80
2022-12-28T08:44:15.312Z,8.33
2022-12-28T08:46:43.686Z,6.40
2022-12-28T08:49:13.217Z,5.10
2022-12-28T08:51:42.629Z,5.70
2022-12-28T08:54:14.890Z,5.47
2022-12-28T08:56:45.564Z,5.97
2022-12-28T08:59:16.988Z,5.20
2022-12-28T09:01:46.355Z,5.27
2022-12-28T09:04:16.924Z,4.97
2022-12-28T09:06:45.257Z,5.00
2022-12-28T09:09:17.460Z,4.97
2022-12-28T09:11:46.743Z,4.83
2022-12-28T09:14:23.092Z,5.53
2022-12-28T09:16:53.178Z,4.73
2022-12-28T09:19:21.806Z,5.80
2022-12-28T09:21:52.670Z,4.77
2022-12-28T09:24:23.014Z,5.50
2022-12-28T09:26:53.057Z,5.40
2022-12-28T09:29:21.682Z,5.27
2022-12-28T09:31:49.910Z,5.27
2022-12-28T09:34:36.810Z,5.80
2022-12-28T09:37:06.370Z,5.37
2022-12-28T09:39:36.145Z,5.77
2022-12-28T09:42:10.558Z,5.53
2022-12-28T09:44:48.645Z,5.13
2022-12-28T09:47:25.761Z,6.43
2022-12-28T09:50:06.267Z,5.77
2022-12-28T09:52:37.674Z,5.67
2022-12-28T09:55:13.401Z,6.83
2022-12-28T09:57:44.687Z,5.90
2022-12-28T10:00:19.127Z,6.43
2022-12-28T10:02:50.917Z,6.67
2022-12-28T10:05:21.763Z,6.07
2022-12-28T10:07:50.650Z,6.37
2022-12-28T10:10:23.426Z,5.33
2022-12-28T10:12:52.554Z,6.10
2022-12-28T10:15:23.941Z,5.43
2022-12-28T10:17:52.462Z,5.33
2022-12-28T10:20:22.923Z,4.93
2022-12-28T10:22:55.315Z,4.70
2022-12-28T10:25:26.688Z,5.07
2022-12-28T10:27:56.189Z,4.63
2022-12-28T10:30:27.317Z,5.03
2022-12-28T10:33:02.448Z,4.50
2022-12-28T10:35:36.854Z,5.00
2022-12-28T10:38:19.854Z,5.13
2022-12-28T10:40:58.114Z,5.33
2022-12-28T10:43:29.958Z,5.40
2022-12-28T10:46:00.341Z,5.27
2022-12-28T10:48:32.253Z,5.13
2022-12-28T10:51:12.364Z,4.33
2022-12-28T10:53:44.614Z,5.00
2022-12-28T10:56:26.385Z,4.27
2022-12-28T10:58:56.155Z,3.80
2022-12-28T11:01:29.885Z,5.40
2022-12-28T11:04:07.427Z,4.57
2022-12-28T11:06:37.185Z,4.53
2022-12-28T11:09:17.376Z,5.53
2022-12-28T11:11:48.896Z,5.57
2022-12-28T11:14:26.243Z,5.27
2022-12-28T11:16:54.700Z,5.50
2022-12-28T11:19:24.867Z,4.57
2022-12-28T11:21:53.735Z,5.10
2022-12-28T11:24:28.267Z,5.00
2022-12-28T11:26:59.278Z,4.10
2022-12-28T11:29:27.554Z,5.03
2022-12-28T11:32:01.131Z,4.63
2022-12-28T11:34:32.421Z,5.40
2022-12-28T11:37:01.482Z,4.30
2022-12-28T11:39:43.390Z,4.73
2022-12-28T11:45:04.457Z,5.23
2022-12-28T11:47:34.268Z,5.17
2022-12-28T11:50:39.678Z,4.93
2022-12-28T11:53:23.455Z,4.87
2022-12-28T11:56:06.331Z,5.53
2022-12-28T11:59:16.011Z,4.37
2022-12-28T12:01:50.379Z,4.47
2022-12-28T12:04:40.751Z,4.90
2022-12-28T12:07:16.948Z,4.27
2022-12-28T12:09:47.811Z,5.47
2022-12-28T12:12:36.629Z,4.30
2022-12-28T12:15:13.211Z,4.67
2022-12-28T12:17:47.959Z,4.80
2022-12-28T12:20:30.125Z,4.60
2022-12-28T12:23:03.285Z,5.07
2022-12-28T12:25:38.908Z,4.50
2022-12-28T12:28:12.737Z,4.20
2022-12-28T12:30:44.202Z,4.30
2022-12-28T12:33:18.455Z,4.13
2022-12-28T12:36:02.215Z,3.70
2022-12-28T12:38:47.511Z,3.87
2022-12-28T12:41:27.756Z,4.30
2022-12-28T12:44:12.077Z,3.90
2022-12-28T12:47:08.606Z,5.13
2022-12-28T12:50:14.156Z,3.83
2022-12-28T12:52:50.625Z,4.13
2022-12-28T12:55:30.944Z,4.33
2022-12-28T12:58:04.006Z,4.43
2022-12-28T13:00:48.815Z,4.37
2022-12-28T13:03:24.652Z,4.13
2022-12-28T13:05:58.294Z,3.97
2022-12-28T13:08:29.130Z,3.67
2022-12-28T13:10:57.666Z,4.10
2022-12-28T13:13:31.873Z,4.20
2022-12-28T13:16:04.188Z,3.80
2022-12-28T13:18:44.726Z,3.90
2022-12-28T13:21:22.326Z,3.77
2022-12-28T13:23:51.304Z,3.93
2022-12-28T13:26:24.280Z,3.53
2022-12-28T13:28:57.090Z,3.33
2022-12-28T13:31:30.412Z,3.67
2022-12-28T13:34:00.512Z,4.13
2022-12-28T13:36:30.582Z,3.60
2022-12-28T13:39:12.012Z,3.30
2022-12-28T13:41:48.572Z,3.60
2022-12-28T13:44:29.936Z,3.30
2022-12-28T13:47:04.189Z,4.00
2022-12-28T13:49:38.102Z,3.43
2022-12-28T13:52:12.656Z,3.60
2022-12-28T13:54:44.930Z,3.53
2022-12-28T13:57:45.339Z,3.10
2022-12-28T14:00:04.801Z,3.20
2022-12-28T14:02:35.714Z,3.03
2022-12-28T14:05:04.114Z,3.07
2022-12-28T14:07:36.504Z,3.53
2022-12-28T14:10:06.112Z,4.27
2022-12-28T14:12:34.580Z,4.23
2022-12-28T14:15:03.229Z,4.60
2022-12-28T14:17:32.068Z,4.03
2022-12-28T14:20:00.740Z,4.43
2022-12-28T14:22:31.077Z,4.40
2022-12-28T14:25:07.516Z,5.10
2022-12-28T14:27:39.526Z,6.03
2022-12-28T14:30:21.535Z,5.50
2022-12-28T14:32:50.061Z,4.17
2022-12-28T14:35:21.083Z,4.53
2022-12-28T14:37:53.922Z,4.20
2022-12-28T14:40:31.388Z,3.40
2022-12-28T14:43:04.362Z,3.63
2022-12-28T14:48:37.595Z,3.47
2022-12-28T14:51:24.267Z,3.77
2022-12-28T14:54:17.029Z,4.63
2022-12-28T14:56:50.736Z,4.33
2022-12-28T14:59:23.004Z,3.63
2022-12-28T15:00:25.276Z,3.17
2022-12-28T15:01:51.341Z,4.07
2022-12-28T15:04:37.838Z,4.67
2022-12-28T15:07:07.427Z,4.43
2022-12-28T15:09:35.906Z,4.63
2022-12-28T15:12:13.564Z,5.00
2022-12-28T15:14:41.916Z,4.93
2022-12-28T15:17:11.068Z,5.07
2022-12-28T15:19:39.802Z,4.93
2022-12-28T15:22:08.026Z,5.43
2022-12-28T15:24:36.743Z,5.03
2022-12-28T15:27:05.102Z,5.10
2022-12-28T15:32:22.996Z,4.80
2022-12-28T15:34:51.235Z,4.93
2022-12-28T15:37:19.653Z,4.73
2022-12-28T15:39:48.834Z,4.93
2022-12-28T15:42:17.112Z,5.30
2022-12-28T15:44:48.840Z,5.00
2022-12-28T15:47:17.013Z,5.33
2022-12-28T15:49:45.344Z,5.70
2022-12-28T15:52:13.631Z,6.00
2022-12-28T15:54:46.903Z,5.47
2022-12-28T15:57:16.065Z,5.50
2022-12-28T15:59:44.424Z,5.63
2022-12-28T16:02:14.262Z,5.27
2022-12-28T16:04:42.596Z,6.90
2022-12-28T16:07:11.072Z,5.60
2022-12-28T16:09:39.313Z,6.20
2022-12-28T16:12:07.804Z,6.40
2022-12-28T16:14:36.079Z,6.37
2022-12-28T16:17:04.248Z,6.57
2022-12-28T16:19:33.922Z,7.17
2022-12-28T16:22:02.132Z,8.30
2022-12-28T16:24:30.482Z,8.83
2022-12-28T16:26:58.817Z,8.97
2022-12-28T16:29:27.094Z,9.83
2022-12-28T16:31:56.596Z,9.60
2022-12-28T16:34:24.824Z,8.87
2022-12-28T16:36:57.261Z,12.03
2022-12-28T16:39:25.579Z,10.47
2022-12-28T16:41:53.843Z,10.00
2022-12-28T16:44:23.954Z,8.83
2022-12-28T16:46:54.261Z,7.97
2022-12-28T16:49:30.775Z,8.63
2022-12-28T16:52:00.762Z,8.03
2022-12-28T16:54:29.423Z,6.73
2022-12-28T16:56:57.743Z,7.37
2022-12-28T16:59:27.922Z,7.47
2022-12-28T17:01:59.309Z,8.03
2022-12-28T17:04:27.893Z,7.43
2022-12-28T17:06:56.158Z,8.03
2022-12-28T17:09:25.753Z,7.33
2022-12-28T17:11:54.058Z,7.33
2022-12-28T17:14:36.893Z,7.53
2022-12-28T17:17:06.338Z,8.03
2022-12-28T17:19:34.769Z,7.93
2022-12-28T17:22:04.208Z,8.47
2022-12-28T17:24:33.989Z,8.60
2022-12-28T17:27:08.210Z,7.57
2022-12-28T17:29:38.584Z,7.80
2022-12-28T17:32:07.489Z,7.23
2022-12-28T17:34:36.083Z,6.97
2022-12-28T17:37:04.912Z,7.23
2022-12-28T17:39:40.355Z,7.10
2022-12-28T17:42:09.779Z,8.20
2022-12-28T17:44:38.085Z,7.27
2022-12-28T17:47:06.809Z,7.50
2022-12-28T17:49:35.106Z,8.17
2022-12-28T17:52:03.529Z,7.50
2022-12-28T17:54:31.739Z,7.50
2022-12-28T17:57:01.627Z,7.10
2022-12-28T17:59:30.009Z,7.43
2022-12-28T18:01:58.482Z,6.43
2022-12-28T18:04:26.967Z,6.20
2022-12-28T18:06:55.274Z,7.00
2022-12-28T18:09:27.725Z,7.07
2022-12-28T18:11:57.070Z,6.40
2022-12-28T18:14:27.808Z,7.23
2022-12-28T18:16:56.712Z,7.20
2022-12-28T18:19:25.246Z,6.87
2022-12-28T18:21:53.806Z,8.40
2022-12-28T18:24:22.820Z,7.60
2022-12-28T18:26:51.105Z,8.83
2022-12-28T18:29:19.963Z,9.13
2022-12-28T18:31:50.026Z,8.57
2022-12-28T18:34:18.507Z,7.90
2022-12-28T18:36:46.805Z,7.13
2022-12-28T18:39:15.218Z,7.87
2022-12-28T18:41:43.872Z,7.77
2022-12-28T18:44:12.837Z,7.90
2022-12-28T18:46:41.646Z,8.80
2022-12-28T18:49:12.072Z,10.73
2022-12-28T18:51:41.563Z,10.80
2022-12-28T18:54:10.234Z,9.70
2022-12-28T18:56:38.875Z,10.47
2022-12-28T18:59:07.106Z,8.80
2022-12-28T19:04:30.248Z,9.17
2022-12-28T19:06:59.608Z,9.43
2022-12-28T19:09:28.016Z,9.67
2022-12-28T19:11:57.218Z,9.43
2022-12-28T19:14:25.928Z,9.33
2022-12-28T19:16:55.104Z,11.43
2022-12-28T19:19:23.516Z,12.33
2022-12-28T19:21:58.369Z,13.60
2022-12-28T19:24:26.990Z,12.27
2022-12-28T19:26:56.907Z,12.90
2022-12-28T19:29:25.822Z,11.83
2022-12-28T19:31:55.614Z,12.23
2022-12-28T19:34:24.236Z,11.67
2022-12-28T19:36:54.266Z,10.27
2022-12-28T19:39:23.100Z,10.13
2022-12-28T19:41:51.850Z,9.97
2022-12-28T19:44:21.156Z,10.50
2022-12-28T19:46:50.179Z,9.67
2022-12-28T19:49:19.106Z,10.23
2022-12-28T19:51:48.796Z,9.70
2022-12-28T19:54:18.648Z,9.33
2022-12-28T19:56:46.972Z,10.17
2022-12-28T19:59:15.921Z,10.47
2022-12-28T20:01:44.667Z,9.63
2022-12-28T20:04:14.792Z,9.97
2022-12-28T20:06:44.667Z,11.27
2022-12-28T20:09:14.238Z,11.47
2022-12-28T20:11:45.191Z,10.73
2022-12-28T20:14:20.397Z,11.90
2022-12-28T20:16:53.639Z,10.60
2022-12-28T20:19:23.249Z,10.27
2022-12-28T20:21:52.611Z,11.67
2022-12-28T20:24:24.827Z,10.87
2022-12-28T20:27:01.547Z,11.47
2022-12-28T20:29:30.376Z,11.10
2022-12-28T20:31:58.712Z,10.17
2022-12-28T20:34:27.804Z,9.00
2022-12-28T20:36:56.430Z,12.27
2022-12-28T20:39:25.375Z,11.23
2022-12-28T20:42:14.265Z,9.50
2022-12-28T20:44:43.035Z,10.23
2022-12-28T20:47:12.005Z,10.03
2022-12-28T20:49:40.865Z,9.07
2022-12-28T20:52:11.045Z,8.33
2022-12-28T20:54:39.931Z,9.40
2022-12-28T20:57:10.682Z,8.37
2022-12-28T20:59:39.520Z,9.13
2022-12-28T21:02:08.533Z,8.30
2022-12-28T21:04:37.226Z,8.30
2022-12-28T21:07:06.220Z,8.07
2022-12-28T21:09:35.096Z,9.03
2022-12-28T21:12:04.018Z,8.33
2022-12-28T21:14:34.171Z,8.87
2022-12-28T21:17:02.476Z,8.33
2022-12-28T21:19:30.632Z,9.10
2022-12-28T21:21:59.203Z,8.63
2022-12-28T21:24:27.577Z,9.30
2022-12-28T21:26:56.123Z,9.33
2022-12-28T21:29:26.109Z,8.60
2022-12-28T21:31:56.397Z,10.20
2022-12-28T21:34:27.835Z,9.30
2022-12-28T21:36:56.539Z,8.83
2022-12-28T21:39:24.934Z,9.77
2022-12-28T21:41:53.236Z,9.57
2022-12-28T21:44:23.072Z,9.83
2022-12-28T21:46:52.311Z,10.87
2022-12-28T21:49:22.453Z,10.50
2022-12-28T21:51:51.657Z,11.03
2022-12-28T21:54:21.447Z,10.27
2022-12-28T21:56:52.715Z,9.50
2022-12-28T21:59:22.372Z,9.73
2022-12-28T22:02:08.403Z,10.67
2022-12-28T22:05:01.853Z,8.53
2022-12-28T22:07:31.389Z,9.17
2022-12-28T22:10:17.213Z,7.87
2022-12-28T22:12:45.503Z,7.97
2022-12-28T22:15:33.331Z,7.60
2022-12-28T22:18:03.052Z,8.50
2022-12-28T22:20:33.396Z,9.10
2022-12-28T22:23:02.726Z,9.13
2022-12-28T22:25:31.849Z,8.77
2022-12-28T22:28:01.196Z,8.23
2022-12-28T22:30:30.029Z,7.37
2022-12-28T22:32:58.698Z,7.30
2022-12-28T22:35:27.466Z,8.37
2022-12-28T22:37:57.209Z,8.07
2022-12-28T22:40:25.381Z,7.37
2022-12-28T22:42:54.357Z,7.60
2022-12-28T22:45:25.018Z,7.53
2022-12-28T22:47:59.355Z,7.93
2022-12-28T22:50:29.220Z,8.00
2022-12-28T22:52:59.481Z,8.57
2022-12-28T22:55:27.796Z,8.37
2022-12-28T22:57:56.104Z,8.23
2022-12-28T23:00:24.460Z,7.83
2022-12-28T23:02:52.846Z,7.40
2022-12-28T23:05:21.272Z,8.93
2022-12-28T23:07:49.495Z,8.67
2022-12-28T23:10:19.063Z,9.63
2022-12-28T23:12:47.199Z,9.87
2022-12-28T23:15:19.200Z,11.40
2022-12-28T23:17:49.181Z,11.47
2022-12-28T23:20:34.417Z,11.20
2022-12-28T23:23:19.759Z,10.93
2022-12-28T23:26:06.977Z,11.17
2022-12-28T23:28:36.950Z,10.23
2022-12-28T23:31:06.053Z,10.70
2022-12-28T23:33:34.393Z,10.40
2022-12-28T23:36:04.125Z,10.83
2022-12-28T23:38:33.509Z,11.77
2022-12-28T23:41:23.960Z,10.60
2022-12-28T23:43:52.270Z,12.13
2022-12-28T23:46:20.547Z,12.03
2022-12-28T23:48:48.796Z,11.73
2022-12-28T23:51:18.166Z,11.27
2022-12-28T23:53:46.499Z,11.23
2022-12-28T23:56:16.033Z,12.80
2022-12-28T23:58:44.266Z,10.57
